<?xml version="1.0" encoding="UTF-8" standalone="no" ?>
<gpx xmlns="http://www.topografix.com/GPX/1/1" xmlns:xsi="http://www.w3.org/2001/XMLSchema-instance" xsi:schemaLocation="http://www.topografix.com/GPX/1/1 http://www.topografix.com/GPX/1/1/gpx.xsd" version="1.1" creator="VisuGPX - https://www.visugpx.com">
  <metadata>
    <name>3tracesRico</name>
    <desc><![CDATA[tdl 2026]]></desc>
  </metadata>
  <trk>
    <name><![CDATA[2026-01-21 14:10:01 [Suunto App]_1]]></name>
    <desc><![CDATA[moyenne boucle

moyenne boucle]]></desc>
    <extensions>
      <line xmlns="http://www.topografix.com/GPX/gpx_style/0/2">
        <color>0000FF</color>
        <opacity>1</opacity>
        <width>4</width>
          <extensions>
            <sens>1</sens>
          </extensions>
      </line>
    </extensions>
    <trkseg>
      <trkpt lat="47.62935" lon="-0.71397">
        <ele>20.4</ele>
        <time>2026-01-21T13:10:10Z</time>
        <extensions>
          <visugpx:TrkExtension xmlns:visugpx="https://www.visugpx.com/editgpx/">
            <visugpx:node>67</visugpx:node>
            </visugpx:TrkExtension>
        </extensions>
      </trkpt>
      <trkpt lat="47.62922" lon="-0.71372">
        <ele>21.4</ele>
        <time>2026-01-21T13:10:14Z</time>
      </trkpt>
      <trkpt lat="47.6291" lon="-0.71348">
        <ele>20.9</ele>
        <time>2026-01-21T13:10:23Z</time>
      </trkpt>
      <trkpt lat="47.62908" lon="-0.71343">
        <ele>20.6</ele>
        <time>2026-01-21T13:10:24Z</time>
      </trkpt>
      <trkpt lat="47.62923" lon="-0.71325">
        <ele>19.1</ele>
        <time>2026-01-21T13:10:30Z</time>
      </trkpt>
      <trkpt lat="47.6293" lon="-0.71319">
        <ele>19.5</ele>
        <time>2026-01-21T13:10:31Z</time>
      </trkpt>
      <trkpt lat="47.62939" lon="-0.7131">
        <ele>20.4</ele>
        <time>2026-01-21T13:10:36Z</time>
      </trkpt>
      <trkpt lat="47.62944" lon="-0.71304">
        <ele>20.9</ele>
        <time>2026-01-21T13:10:37Z</time>
      </trkpt>
      <trkpt lat="47.62946" lon="-0.71301">
        <ele>20.8</ele>
        <time>2026-01-21T13:10:48Z</time>
      </trkpt>
      <trkpt lat="47.62944" lon="-0.71295">
        <ele>20.6</ele>
        <time>2026-01-21T13:10:49Z</time>
      </trkpt>
      <trkpt lat="47.62942" lon="-0.7129">
        <ele>20.3</ele>
        <time>2026-01-21T13:10:50Z</time>
      </trkpt>
      <trkpt lat="47.62941" lon="-0.71286">
        <ele>20.1</ele>
        <time>2026-01-21T13:10:51Z</time>
      </trkpt>
      <trkpt lat="47.62938" lon="-0.71281">
        <ele>19.9</ele>
        <time>2026-01-21T13:10:52Z</time>
      </trkpt>
      <trkpt lat="47.62934" lon="-0.71273">
        <ele>19.5</ele>
        <time>2026-01-21T13:10:54Z</time>
      </trkpt>
      <trkpt lat="47.62924" lon="-0.7125">
        <ele>19</ele>
        <time>2026-01-21T13:10:59Z</time>
      </trkpt>
      <trkpt lat="47.62921" lon="-0.71242">
        <ele>19</ele>
        <time>2026-01-21T13:11:03Z</time>
      </trkpt>
      <trkpt lat="47.62919" lon="-0.71237">
        <ele>19</ele>
        <time>2026-01-21T13:11:04Z</time>
      </trkpt>
      <trkpt lat="47.62917" lon="-0.71229">
        <ele>19</ele>
        <time>2026-01-21T13:11:05Z</time>
      </trkpt>
      <trkpt lat="47.62913" lon="-0.71224">
        <ele>19</ele>
        <time>2026-01-21T13:11:06Z</time>
      </trkpt>
      <trkpt lat="47.62893" lon="-0.71205">
        <ele>19.6</ele>
        <time>2026-01-21T13:11:17Z</time>
      </trkpt>
      <trkpt lat="47.62894" lon="-0.71196">
        <ele>16</ele>
        <time>2026-01-21T13:11:18Z</time>
      </trkpt>
      <trkpt lat="47.62847" lon="-0.71167">
        <ele>19.5</ele>
        <time>2026-01-21T13:11:35Z</time>
      </trkpt>
      <trkpt lat="47.62819" lon="-0.71143">
        <ele>19.4</ele>
        <time>2026-01-21T13:11:48Z</time>
      </trkpt>
      <trkpt lat="47.62799" lon="-0.71125">
        <ele>19.4</ele>
        <time>2026-01-21T13:11:57Z</time>
      </trkpt>
      <trkpt lat="47.62778" lon="-0.71105">
        <ele>19.2</ele>
        <time>2026-01-21T13:12:07Z</time>
      </trkpt>
      <trkpt lat="47.62759" lon="-0.71085">
        <ele>19.3</ele>
        <time>2026-01-21T13:12:16Z</time>
      </trkpt>
      <trkpt lat="47.62748" lon="-0.71073">
        <ele>19.4</ele>
        <time>2026-01-21T13:12:20Z</time>
      </trkpt>
      <trkpt lat="47.6273" lon="-0.71052">
        <ele>19.4</ele>
        <time>2026-01-21T13:12:32Z</time>
      </trkpt>
      <trkpt lat="47.6272" lon="-0.71043">
        <ele>19.4</ele>
        <time>2026-01-21T13:12:33Z</time>
      </trkpt>
      <trkpt lat="47.62711" lon="-0.71029">
        <ele>19.6</ele>
        <time>2026-01-21T13:12:38Z</time>
      </trkpt>
      <trkpt lat="47.62685" lon="-0.70992">
        <ele>19.2</ele>
        <time>2026-01-21T13:12:51Z</time>
      </trkpt>
      <trkpt lat="47.62658" lon="-0.70951">
        <ele>19.5</ele>
        <time>2026-01-21T13:13:08Z</time>
      </trkpt>
      <trkpt lat="47.62652" lon="-0.70941">
        <ele>19.5</ele>
        <time>2026-01-21T13:13:09Z</time>
      </trkpt>
      <trkpt lat="47.62642" lon="-0.70924">
        <ele>19.1</ele>
        <time>2026-01-21T13:13:15Z</time>
      </trkpt>
      <trkpt lat="47.62628" lon="-0.70893">
        <ele>19.5</ele>
        <time>2026-01-21T13:13:25Z</time>
      </trkpt>
      <trkpt lat="47.62622" lon="-0.70879">
        <ele>19.4</ele>
        <time>2026-01-21T13:13:29Z</time>
      </trkpt>
      <trkpt lat="47.62614" lon="-0.70861">
        <ele>19.1</ele>
        <time>2026-01-21T13:13:35Z</time>
      </trkpt>
      <trkpt lat="47.62609" lon="-0.7085">
        <ele>19.4</ele>
        <time>2026-01-21T13:13:36Z</time>
      </trkpt>
      <trkpt lat="47.62597" lon="-0.70823">
        <ele>19.5</ele>
        <time>2026-01-21T13:13:44Z</time>
      </trkpt>
      <trkpt lat="47.62583" lon="-0.70787">
        <ele>19</ele>
        <time>2026-01-21T13:13:54Z</time>
      </trkpt>
      <trkpt lat="47.62576" lon="-0.7077">
        <ele>19.2</ele>
        <time>2026-01-21T13:13:59Z</time>
      </trkpt>
      <trkpt lat="47.62568" lon="-0.70748">
        <ele>19.5</ele>
        <time>2026-01-21T13:14:03Z</time>
      </trkpt>
      <trkpt lat="47.62556" lon="-0.70714">
        <ele>19</ele>
        <time>2026-01-21T13:14:14Z</time>
      </trkpt>
      <trkpt lat="47.62542" lon="-0.70668">
        <ele>19.5</ele>
        <time>2026-01-21T13:14:30Z</time>
      </trkpt>
      <trkpt lat="47.62539" lon="-0.7066">
        <ele>19.4</ele>
        <time>2026-01-21T13:14:32Z</time>
      </trkpt>
      <trkpt lat="47.62536" lon="-0.7065">
        <ele>19.3</ele>
        <time>2026-01-21T13:14:33Z</time>
      </trkpt>
      <trkpt lat="47.62533" lon="-0.70639">
        <ele>19.2</ele>
        <time>2026-01-21T13:14:34Z</time>
      </trkpt>
      <trkpt lat="47.62513" lon="-0.70583">
        <ele>19.5</ele>
        <time>2026-01-21T13:14:53Z</time>
      </trkpt>
      <trkpt lat="47.62507" lon="-0.70566">
        <ele>19.3</ele>
        <time>2026-01-21T13:14:55Z</time>
      </trkpt>
      <trkpt lat="47.62501" lon="-0.70547">
        <ele>19</ele>
        <time>2026-01-21T13:15:02Z</time>
      </trkpt>
      <trkpt lat="47.62497" lon="-0.70536">
        <ele>19</ele>
        <time>2026-01-21T13:15:04Z</time>
      </trkpt>
      <trkpt lat="47.62492" lon="-0.70525">
        <ele>19</ele>
        <time>2026-01-21T13:15:05Z</time>
      </trkpt>
      <trkpt lat="47.6248" lon="-0.70506">
        <ele>19</ele>
        <time>2026-01-21T13:15:12Z</time>
      </trkpt>
      <trkpt lat="47.62471" lon="-0.70492">
        <ele>19</ele>
      </trkpt>
      <trkpt lat="47.62463" lon="-0.70477">
        <ele>19</ele>
        <time>2026-01-21T13:15:24Z</time>
      </trkpt>
      <trkpt lat="47.62455" lon="-0.70464">
        <ele>19</ele>
        <time>2026-01-21T13:15:28Z</time>
      </trkpt>
      <trkpt lat="47.62448" lon="-0.70454">
        <ele>19</ele>
      </trkpt>
      <trkpt lat="47.62441" lon="-0.70443">
        <ele>19</ele>
        <time>2026-01-21T13:15:32Z</time>
      </trkpt>
      <trkpt lat="47.62437" lon="-0.7044">
        <ele>19</ele>
      </trkpt>
      <trkpt lat="47.62435" lon="-0.70436">
        <ele>19</ele>
        <time>2026-01-21T13:15:34Z</time>
      </trkpt>
      <trkpt lat="47.62434" lon="-0.70432">
        <ele>19</ele>
        <time>2026-01-21T13:15:35Z</time>
      </trkpt>
      <trkpt lat="47.62434" lon="-0.70426">
        <ele>19</ele>
        <time>2026-01-21T13:15:36Z</time>
      </trkpt>
      <trkpt lat="47.62434" lon="-0.70421">
        <ele>19</ele>
      </trkpt>
      <trkpt lat="47.62434" lon="-0.70416">
        <ele>19.2</ele>
      </trkpt>
      <trkpt lat="47.62435" lon="-0.70413">
        <ele>19.6</ele>
      </trkpt>
      <trkpt lat="47.62441" lon="-0.70409">
        <ele>20</ele>
        <time>2026-01-21T13:15:41Z</time>
      </trkpt>
      <trkpt lat="47.62444" lon="-0.70408">
        <ele>20</ele>
      </trkpt>
      <trkpt lat="47.62448" lon="-0.70404">
        <ele>20.2</ele>
      </trkpt>
      <trkpt lat="47.62455" lon="-0.70399">
        <ele>20.5</ele>
      </trkpt>
      <trkpt lat="47.62454" lon="-0.70394">
        <ele>20.9</ele>
      </trkpt>
      <trkpt lat="47.62451" lon="-0.70391">
        <ele>21.3</ele>
      </trkpt>
      <trkpt lat="47.62447" lon="-0.70392">
        <ele>21.5</ele>
        <time>2026-01-21T13:15:43Z</time>
      </trkpt>
      <trkpt lat="47.6244" lon="-0.70394">
        <ele>22.1</ele>
        <time>2026-01-21T13:15:49Z</time>
      </trkpt>
      <trkpt lat="47.62436" lon="-0.70393">
        <ele>22.8</ele>
      </trkpt>
      <trkpt lat="47.62437" lon="-0.7039">
        <ele>23.2</ele>
      </trkpt>
      <trkpt lat="47.62438" lon="-0.70385">
        <ele>23.7</ele>
        <time>2026-01-21T13:15:51Z</time>
      </trkpt>
      <trkpt lat="47.62438" lon="-0.70382">
        <ele>24.1</ele>
      </trkpt>
      <trkpt lat="47.62438" lon="-0.70379">
        <ele>24.7</ele>
      </trkpt>
      <trkpt lat="47.62434" lon="-0.7038">
        <ele>25.1</ele>
        <time>2026-01-21T13:15:53Z</time>
      </trkpt>
      <trkpt lat="47.62432" lon="-0.70382">
        <ele>25.2</ele>
        <time>2026-01-21T13:15:55Z</time>
      </trkpt>
      <trkpt lat="47.62429" lon="-0.70385">
        <ele>18</ele>
        <time>2026-01-21T13:15:57Z</time>
      </trkpt>
      <trkpt lat="47.62419" lon="-0.70394">
        <ele>25.2</ele>
        <time>2026-01-21T13:15:58Z</time>
      </trkpt>
      <trkpt lat="47.62417" lon="-0.70393">
        <ele>25.9</ele>
        <time>2026-01-21T13:16:00Z</time>
      </trkpt>
      <trkpt lat="47.62414" lon="-0.70391">
        <ele>26.3</ele>
        <time>2026-01-21T13:16:01Z</time>
      </trkpt>
      <trkpt lat="47.62412" lon="-0.70388">
        <ele>26.8</ele>
        <time>2026-01-21T13:16:02Z</time>
      </trkpt>
      <trkpt lat="47.62413" lon="-0.70383">
        <ele>27.2</ele>
        <time>2026-01-21T13:16:03Z</time>
      </trkpt>
      <trkpt lat="47.62413" lon="-0.70381">
        <ele>27.4</ele>
        <time>2026-01-21T13:16:04Z</time>
      </trkpt>
      <trkpt lat="47.62406" lon="-0.70382">
        <ele>26.9</ele>
        <time>2026-01-21T13:16:11Z</time>
      </trkpt>
      <trkpt lat="47.62394" lon="-0.70374">
        <ele>27.3</ele>
        <time>2026-01-21T13:16:14Z</time>
      </trkpt>
      <trkpt lat="47.62388" lon="-0.70369">
        <ele>27.8</ele>
        <time>2026-01-21T13:16:16Z</time>
      </trkpt>
      <trkpt lat="47.6238" lon="-0.70362">
        <ele>27.5</ele>
        <time>2026-01-21T13:16:19Z</time>
      </trkpt>
      <trkpt lat="47.62372" lon="-0.70354">
        <ele>27.2</ele>
        <time>2026-01-21T13:16:23Z</time>
      </trkpt>
      <trkpt lat="47.62356" lon="-0.70339">
        <ele>27.2</ele>
        <time>2026-01-21T13:16:31Z</time>
      </trkpt>
      <trkpt lat="47.62346" lon="-0.70331">
        <ele>26.5</ele>
        <time>2026-01-21T13:16:35Z</time>
      </trkpt>
      <trkpt lat="47.62331" lon="-0.70316">
        <ele>26.2</ele>
      </trkpt>
      <trkpt lat="47.62308" lon="-0.70299">
        <ele>25.9</ele>
      </trkpt>
      <trkpt lat="47.62296" lon="-0.70293">
        <ele>25.3</ele>
        <extensions>
          <visugpx:TrkExtension xmlns:visugpx="https://www.visugpx.com/editgpx/">
            <visugpx:node>1</visugpx:node>
            </visugpx:TrkExtension>
        </extensions>
      </trkpt>
      <trkpt lat="47.6226" lon="-0.70278">
        <ele>25.7</ele>
      </trkpt>
      <trkpt lat="47.62221" lon="-0.70271">
        <ele>23.1</ele>
      </trkpt>
      <trkpt lat="47.6219" lon="-0.7026">
        <ele>23.8</ele>
      </trkpt>
      <trkpt lat="47.62176" lon="-0.7025">
        <ele>25</ele>
      </trkpt>
      <trkpt lat="47.62152" lon="-0.70242">
        <ele>23.4</ele>
      </trkpt>
      <trkpt lat="47.62119" lon="-0.70237">
        <ele>22.9</ele>
      </trkpt>
      <trkpt lat="47.62086" lon="-0.70249">
        <ele>21.1</ele>
      </trkpt>
      <trkpt lat="47.62057" lon="-0.70271">
        <ele>21.1</ele>
      </trkpt>
      <trkpt lat="47.62036" lon="-0.70294">
        <ele>20.9</ele>
      </trkpt>
      <trkpt lat="47.62008" lon="-0.70309">
        <ele>20.9</ele>
      </trkpt>
      <trkpt lat="47.61976" lon="-0.70317">
        <ele>20.3</ele>
      </trkpt>
      <trkpt lat="47.61933" lon="-0.70311">
        <ele>19</ele>
      </trkpt>
      <trkpt lat="47.61907" lon="-0.70316">
        <ele>19</ele>
      </trkpt>
      <trkpt lat="47.61887" lon="-0.70318">
        <ele>19</ele>
      </trkpt>
      <trkpt lat="47.61878" lon="-0.70327">
        <ele>19</ele>
      </trkpt>
      <trkpt lat="47.61872" lon="-0.70335">
        <ele>19</ele>
      </trkpt>
      <trkpt lat="47.61868" lon="-0.70337">
        <ele>19</ele>
      </trkpt>
      <trkpt lat="47.61864" lon="-0.70338">
        <ele>19</ele>
      </trkpt>
      <trkpt lat="47.61858" lon="-0.70341">
        <ele>19</ele>
      </trkpt>
      <trkpt lat="47.61847" lon="-0.70338">
        <ele>19</ele>
      </trkpt>
      <trkpt lat="47.61836" lon="-0.7033">
        <ele>19</ele>
      </trkpt>
      <trkpt lat="47.61824" lon="-0.70318">
        <ele>19</ele>
      </trkpt>
      <trkpt lat="47.61814" lon="-0.70301">
        <ele>19</ele>
      </trkpt>
      <trkpt lat="47.6179" lon="-0.70276">
        <ele>19</ele>
      </trkpt>
      <trkpt lat="47.6177" lon="-0.70255">
        <ele>19</ele>
      </trkpt>
      <trkpt lat="47.61754" lon="-0.70234">
        <ele>19</ele>
      </trkpt>
      <trkpt lat="47.61746" lon="-0.70226">
        <ele>19</ele>
      </trkpt>
      <trkpt lat="47.6174" lon="-0.70218">
        <ele>19</ele>
      </trkpt>
      <trkpt lat="47.61738" lon="-0.70211">
        <ele>19</ele>
      </trkpt>
      <trkpt lat="47.61725" lon="-0.70202">
        <ele>19</ele>
      </trkpt>
      <trkpt lat="47.61707" lon="-0.70169">
        <ele>19</ele>
      </trkpt>
      <trkpt lat="47.61694" lon="-0.70148">
        <ele>19</ele>
      </trkpt>
      <trkpt lat="47.61685" lon="-0.70124">
        <ele>19</ele>
      </trkpt>
      <trkpt lat="47.61668" lon="-0.70077">
        <ele>19</ele>
      </trkpt>
      <trkpt lat="47.61659" lon="-0.70055">
        <ele>19</ele>
      </trkpt>
      <trkpt lat="47.61654" lon="-0.70033">
        <ele>19</ele>
      </trkpt>
      <trkpt lat="47.61652" lon="-0.70024">
        <ele>19</ele>
      </trkpt>
      <trkpt lat="47.61648" lon="-0.70015">
        <ele>19</ele>
      </trkpt>
      <trkpt lat="47.61646" lon="-0.70004">
        <ele>19</ele>
      </trkpt>
      <trkpt lat="47.61645" lon="-0.69987">
        <ele>19</ele>
      </trkpt>
      <trkpt lat="47.61645" lon="-0.69983">
        <ele>19</ele>
        <extensions>
          <visugpx:TrkExtension xmlns:visugpx="https://www.visugpx.com/editgpx/">
            <visugpx:node>4</visugpx:node>
            </visugpx:TrkExtension>
        </extensions>
      </trkpt>
      <trkpt lat="47.61646" lon="-0.69975">
        <ele>19</ele>
      </trkpt>
      <trkpt lat="47.61649" lon="-0.69967">
        <ele>19</ele>
      </trkpt>
      <trkpt lat="47.6166" lon="-0.69944">
        <ele>19</ele>
      </trkpt>
      <trkpt lat="47.61666" lon="-0.69927">
        <ele>19</ele>
      </trkpt>
      <trkpt lat="47.61666" lon="-0.69913">
        <ele>19</ele>
      </trkpt>
      <trkpt lat="47.61665" lon="-0.69887">
        <ele>19</ele>
      </trkpt>
      <trkpt lat="47.61659" lon="-0.6977">
        <ele>19</ele>
      </trkpt>
      <trkpt lat="47.61656" lon="-0.69694">
        <ele>19</ele>
      </trkpt>
      <trkpt lat="47.61654" lon="-0.69673">
        <ele>19</ele>
      </trkpt>
      <trkpt lat="47.61653" lon="-0.69661">
        <ele>19</ele>
      </trkpt>
      <trkpt lat="47.61653" lon="-0.69657">
        <ele>19</ele>
      </trkpt>
      <trkpt lat="47.61653" lon="-0.69652">
        <ele>19</ele>
      </trkpt>
      <trkpt lat="47.61653" lon="-0.69644">
        <ele>19</ele>
      </trkpt>
      <trkpt lat="47.61655" lon="-0.69628">
        <ele>19</ele>
      </trkpt>
      <trkpt lat="47.61655" lon="-0.696">
        <ele>19</ele>
      </trkpt>
      <trkpt lat="47.61656" lon="-0.69574">
        <ele>19</ele>
      </trkpt>
      <trkpt lat="47.61657" lon="-0.69535">
        <ele>19</ele>
      </trkpt>
      <trkpt lat="47.61658" lon="-0.69516">
        <ele>19</ele>
      </trkpt>
      <trkpt lat="47.61661" lon="-0.69502">
        <ele>19</ele>
      </trkpt>
      <trkpt lat="47.61661" lon="-0.69501">
        <ele>19</ele>
        <extensions>
          <visugpx:TrkExtension xmlns:visugpx="https://www.visugpx.com/editgpx/">
            <visugpx:node>5</visugpx:node>
            </visugpx:TrkExtension>
        </extensions>
      </trkpt>
      <trkpt lat="47.61671" lon="-0.69488">
        <ele>19.8</ele>
        <extensions>
          <visugpx:TrkExtension xmlns:visugpx="https://www.visugpx.com/editgpx/">
            <visugpx:node>6</visugpx:node>
            </visugpx:TrkExtension>
        </extensions>
      </trkpt>
      <trkpt lat="47.61696" lon="-0.69489">
        <ele>19.4</ele>
      </trkpt>
      <trkpt lat="47.61707" lon="-0.69475">
        <ele>19.5</ele>
      </trkpt>
      <trkpt lat="47.61706" lon="-0.69473">
        <ele>19.6</ele>
      </trkpt>
      <trkpt lat="47.61721" lon="-0.69477">
        <ele>19</ele>
      </trkpt>
      <trkpt lat="47.61781" lon="-0.6948">
        <ele>19.3</ele>
        <extensions>
          <visugpx:TrkExtension xmlns:visugpx="https://www.visugpx.com/editgpx/">
            <visugpx:node>7</visugpx:node>
            </visugpx:TrkExtension>
        </extensions>
      </trkpt>
      <trkpt lat="47.61798" lon="-0.69485">
        <ele>19.8</ele>
      </trkpt>
      <trkpt lat="47.61845" lon="-0.69493">
        <ele>20.5</ele>
      </trkpt>
      <trkpt lat="47.61884" lon="-0.69504">
        <ele>21.1</ele>
      </trkpt>
      <trkpt lat="47.61912" lon="-0.69511">
        <ele>21.2</ele>
      </trkpt>
      <trkpt lat="47.61936" lon="-0.6953">
        <ele>21.5</ele>
      </trkpt>
      <trkpt lat="47.61974" lon="-0.69551">
        <ele>21.3</ele>
      </trkpt>
      <trkpt lat="47.61987" lon="-0.69557">
        <ele>20.7</ele>
      </trkpt>
      <trkpt lat="47.62003" lon="-0.69559">
        <ele>19.7</ele>
      </trkpt>
      <trkpt lat="47.62018" lon="-0.69561">
        <ele>20</ele>
      </trkpt>
      <trkpt lat="47.62035" lon="-0.69564">
        <ele>20.4</ele>
      </trkpt>
      <trkpt lat="47.62042" lon="-0.69564">
        <ele>20.2</ele>
        <extensions>
          <visugpx:TrkExtension xmlns:visugpx="https://www.visugpx.com/editgpx/">
            <visugpx:node>9</visugpx:node>
            </visugpx:TrkExtension>
        </extensions>
      </trkpt>
      <trkpt lat="47.62052" lon="-0.69561">
        <ele>19.6</ele>
      </trkpt>
      <trkpt lat="47.62084" lon="-0.69538">
        <ele>19</ele>
      </trkpt>
      <trkpt lat="47.62106" lon="-0.69522">
        <ele>19</ele>
      </trkpt>
      <trkpt lat="47.62138" lon="-0.69501">
        <ele>20</ele>
      </trkpt>
      <trkpt lat="47.62153" lon="-0.69491">
        <ele>19.3</ele>
      </trkpt>
      <trkpt lat="47.62175" lon="-0.69478">
        <ele>19.3</ele>
      </trkpt>
      <trkpt lat="47.622" lon="-0.69463">
        <ele>19.5</ele>
      </trkpt>
      <trkpt lat="47.62229" lon="-0.69446">
        <ele>19</ele>
      </trkpt>
      <trkpt lat="47.62251" lon="-0.69429">
        <ele>19</ele>
      </trkpt>
      <trkpt lat="47.62286" lon="-0.69396">
        <ele>19</ele>
      </trkpt>
      <trkpt lat="47.62325" lon="-0.69357">
        <ele>19</ele>
      </trkpt>
      <trkpt lat="47.62358" lon="-0.6933">
        <ele>19</ele>
      </trkpt>
      <trkpt lat="47.62402" lon="-0.69301">
        <ele>19.4</ele>
      </trkpt>
      <trkpt lat="47.62468" lon="-0.69272">
        <ele>19.7</ele>
      </trkpt>
      <trkpt lat="47.62523" lon="-0.69256">
        <ele>19</ele>
      </trkpt>
      <trkpt lat="47.62565" lon="-0.69244">
        <ele>19</ele>
      </trkpt>
      <trkpt lat="47.62584" lon="-0.69243">
        <ele>19</ele>
      </trkpt>
      <trkpt lat="47.62594" lon="-0.69244">
        <ele>19.3</ele>
      </trkpt>
      <trkpt lat="47.62606" lon="-0.69246">
        <ele>19.7</ele>
      </trkpt>
      <trkpt lat="47.62617" lon="-0.69247">
        <ele>19.9</ele>
      </trkpt>
      <trkpt lat="47.62656" lon="-0.69244">
        <ele>19.8</ele>
      </trkpt>
      <trkpt lat="47.62687" lon="-0.69243">
        <ele>19.7</ele>
      </trkpt>
      <trkpt lat="47.62719" lon="-0.69239">
        <ele>19.6</ele>
      </trkpt>
      <trkpt lat="47.62743" lon="-0.69238">
        <ele>19.6</ele>
      </trkpt>
      <trkpt lat="47.62767" lon="-0.69238">
        <ele>19.6</ele>
      </trkpt>
      <trkpt lat="47.62784" lon="-0.69241">
        <ele>19.7</ele>
        <extensions>
          <visugpx:TrkExtension xmlns:visugpx="https://www.visugpx.com/editgpx/">
            <visugpx:node>10</visugpx:node>
            </visugpx:TrkExtension>
        </extensions>
      </trkpt>
      <trkpt lat="47.62791" lon="-0.69242">
        <ele>19.7</ele>
      </trkpt>
      <trkpt lat="47.62816" lon="-0.69245">
        <ele>19.8</ele>
      </trkpt>
      <trkpt lat="47.62835" lon="-0.69244">
        <ele>19.8</ele>
      </trkpt>
      <trkpt lat="47.62854" lon="-0.69242">
        <ele>19.7</ele>
      </trkpt>
      <trkpt lat="47.62878" lon="-0.69238">
        <ele>19.6</ele>
      </trkpt>
      <trkpt lat="47.6295" lon="-0.69226">
        <ele>20</ele>
      </trkpt>
      <trkpt lat="47.62988" lon="-0.69219">
        <ele>19.9</ele>
      </trkpt>
      <trkpt lat="47.63002" lon="-0.69213">
        <ele>19.7</ele>
      </trkpt>
      <trkpt lat="47.63052" lon="-0.69194">
        <ele>19.9</ele>
      </trkpt>
      <trkpt lat="47.63082" lon="-0.69184">
        <ele>19.6</ele>
      </trkpt>
      <trkpt lat="47.63138" lon="-0.69162">
        <ele>19.8</ele>
      </trkpt>
      <trkpt lat="47.63155" lon="-0.69157">
        <ele>19.3</ele>
        <extensions>
          <visugpx:TrkExtension xmlns:visugpx="https://www.visugpx.com/editgpx/">
            <visugpx:node>11</visugpx:node>
            </visugpx:TrkExtension>
        </extensions>
      </trkpt>
      <trkpt lat="47.63163" lon="-0.69266">
        <ele>19.1</ele>
      </trkpt>
      <trkpt lat="47.63163" lon="-0.69301">
        <ele>19.1</ele>
      </trkpt>
      <trkpt lat="47.63163" lon="-0.69315">
        <ele>19.1</ele>
      </trkpt>
      <trkpt lat="47.63157" lon="-0.69331">
        <ele>19.4</ele>
      </trkpt>
      <trkpt lat="47.63121" lon="-0.69386">
        <ele>19.1</ele>
      </trkpt>
      <trkpt lat="47.63108" lon="-0.69391">
        <ele>19.1</ele>
      </trkpt>
      <trkpt lat="47.63089" lon="-0.69385">
        <ele>19</ele>
      </trkpt>
      <trkpt lat="47.63043" lon="-0.69381">
        <ele>19</ele>
      </trkpt>
      <trkpt lat="47.62998" lon="-0.69403">
        <ele>19.5</ele>
        <extensions>
          <visugpx:TrkExtension xmlns:visugpx="https://www.visugpx.com/editgpx/">
            <visugpx:node>12</visugpx:node>
            </visugpx:TrkExtension>
        </extensions>
      </trkpt>
      <trkpt lat="47.63001" lon="-0.69425">
        <ele>19.6</ele>
        <extensions>
          <visugpx:TrkExtension xmlns:visugpx="https://www.visugpx.com/editgpx/">
            <visugpx:node>13</visugpx:node>
            </visugpx:TrkExtension>
        </extensions>
      </trkpt>
      <trkpt lat="47.63003" lon="-0.69439">
        <ele>20.8</ele>
        <extensions>
          <visugpx:TrkExtension xmlns:visugpx="https://www.visugpx.com/editgpx/">
            <visugpx:node>14</visugpx:node>
            </visugpx:TrkExtension>
        </extensions>
      </trkpt>
      <trkpt lat="47.63043" lon="-0.69421">
        <ele>20.4</ele>
      </trkpt>
      <trkpt lat="47.63062" lon="-0.69421">
        <ele>21.1</ele>
        <extensions>
          <visugpx:TrkExtension xmlns:visugpx="https://www.visugpx.com/editgpx/">
            <visugpx:node>15</visugpx:node>
            </visugpx:TrkExtension>
        </extensions>
      </trkpt>
      <trkpt lat="47.63071" lon="-0.69419">
        <ele>20.6</ele>
      </trkpt>
      <trkpt lat="47.63094" lon="-0.6942">
        <ele>21</ele>
      </trkpt>
      <trkpt lat="47.63119" lon="-0.69418">
        <ele>20.5</ele>
      </trkpt>
      <trkpt lat="47.63123" lon="-0.69427">
        <ele>23.6</ele>
      </trkpt>
      <trkpt lat="47.6312" lon="-0.69434">
        <ele>26</ele>
      </trkpt>
      <trkpt lat="47.63105" lon="-0.69441">
        <ele>28.5</ele>
      </trkpt>
      <trkpt lat="47.63092" lon="-0.69451">
        <ele>30.5</ele>
      </trkpt>
      <trkpt lat="47.63093" lon="-0.69463">
        <ele>32.9</ele>
      </trkpt>
      <trkpt lat="47.63093" lon="-0.69463">
        <ele>32.9</ele>
        <extensions>
          <visugpx:TrkExtension xmlns:visugpx="https://www.visugpx.com/editgpx/">
            <visugpx:node>16</visugpx:node>
            </visugpx:TrkExtension>
        </extensions>
      </trkpt>
      <trkpt lat="47.63091" lon="-0.69464">
        <ele>33</ele>
      </trkpt>
      <trkpt lat="47.63108" lon="-0.69467">
        <ele>34.7</ele>
      </trkpt>
      <trkpt lat="47.63114" lon="-0.69464">
        <ele>34</ele>
        <extensions>
          <visugpx:TrkExtension xmlns:visugpx="https://www.visugpx.com/editgpx/">
            <visugpx:node>17</visugpx:node>
            </visugpx:TrkExtension>
        </extensions>
      </trkpt>
      <trkpt lat="47.63125" lon="-0.69452">
        <ele>31</ele>
        <extensions>
          <visugpx:TrkExtension xmlns:visugpx="https://www.visugpx.com/editgpx/">
            <visugpx:node>18</visugpx:node>
            </visugpx:TrkExtension>
        </extensions>
      </trkpt>
      <trkpt lat="47.63136" lon="-0.69432">
        <ele>25.1</ele>
        <extensions>
          <visugpx:TrkExtension xmlns:visugpx="https://www.visugpx.com/editgpx/">
            <visugpx:node>19</visugpx:node>
            </visugpx:TrkExtension>
        </extensions>
      </trkpt>
      <trkpt lat="47.63148" lon="-0.69415">
        <ele>20.2</ele>
        <extensions>
          <visugpx:TrkExtension xmlns:visugpx="https://www.visugpx.com/editgpx/">
            <visugpx:node>20</visugpx:node>
            </visugpx:TrkExtension>
        </extensions>
      </trkpt>
      <trkpt lat="47.63159" lon="-0.69415">
        <ele>20.6</ele>
        <extensions>
          <visugpx:TrkExtension xmlns:visugpx="https://www.visugpx.com/editgpx/">
            <visugpx:node>21</visugpx:node>
            </visugpx:TrkExtension>
        </extensions>
      </trkpt>
      <trkpt lat="47.63167" lon="-0.69422">
        <ele>22.4</ele>
        <extensions>
          <visugpx:TrkExtension xmlns:visugpx="https://www.visugpx.com/editgpx/">
            <visugpx:node>22</visugpx:node>
            </visugpx:TrkExtension>
        </extensions>
      </trkpt>
      <trkpt lat="47.63176" lon="-0.69434">
        <ele>25.6</ele>
        <extensions>
          <visugpx:TrkExtension xmlns:visugpx="https://www.visugpx.com/editgpx/">
            <visugpx:node>23</visugpx:node>
            </visugpx:TrkExtension>
        </extensions>
      </trkpt>
      <trkpt lat="47.63191" lon="-0.69436">
        <ele>26.1</ele>
        <extensions>
          <visugpx:TrkExtension xmlns:visugpx="https://www.visugpx.com/editgpx/">
            <visugpx:node>24</visugpx:node>
            </visugpx:TrkExtension>
        </extensions>
      </trkpt>
      <trkpt lat="47.63197" lon="-0.69422">
        <ele>23.3</ele>
        <extensions>
          <visugpx:TrkExtension xmlns:visugpx="https://www.visugpx.com/editgpx/">
            <visugpx:node>25</visugpx:node>
            </visugpx:TrkExtension>
        </extensions>
      </trkpt>
      <trkpt lat="47.63207" lon="-0.6942">
        <ele>24</ele>
        <extensions>
          <visugpx:TrkExtension xmlns:visugpx="https://www.visugpx.com/editgpx/">
            <visugpx:node>26</visugpx:node>
            </visugpx:TrkExtension>
        </extensions>
      </trkpt>
      <trkpt lat="47.63223" lon="-0.69424">
        <ele>26</ele>
        <extensions>
          <visugpx:TrkExtension xmlns:visugpx="https://www.visugpx.com/editgpx/">
            <visugpx:node>27</visugpx:node>
            </visugpx:TrkExtension>
        </extensions>
      </trkpt>
      <trkpt lat="47.63216" lon="-0.69454">
        <ele>29.6</ele>
        <extensions>
          <visugpx:TrkExtension xmlns:visugpx="https://www.visugpx.com/editgpx/">
            <visugpx:node>28</visugpx:node>
            </visugpx:TrkExtension>
        </extensions>
      </trkpt>
      <trkpt lat="47.63198" lon="-0.69466">
        <ele>31.1</ele>
        <extensions>
          <visugpx:TrkExtension xmlns:visugpx="https://www.visugpx.com/editgpx/">
            <visugpx:node>29</visugpx:node>
            </visugpx:TrkExtension>
        </extensions>
      </trkpt>
      <trkpt lat="47.63175" lon="-0.69469">
        <ele>31.5</ele>
        <extensions>
          <visugpx:TrkExtension xmlns:visugpx="https://www.visugpx.com/editgpx/">
            <visugpx:node>30</visugpx:node>
            </visugpx:TrkExtension>
        </extensions>
      </trkpt>
      <trkpt lat="47.63142" lon="-0.69484">
        <ele>35</ele>
        <extensions>
          <visugpx:TrkExtension xmlns:visugpx="https://www.visugpx.com/editgpx/">
            <visugpx:node>31</visugpx:node>
            </visugpx:TrkExtension>
        </extensions>
      </trkpt>
      <trkpt lat="47.63113" lon="-0.69491">
        <ele>37.2</ele>
        <extensions>
          <visugpx:TrkExtension xmlns:visugpx="https://www.visugpx.com/editgpx/">
            <visugpx:node>32</visugpx:node>
            </visugpx:TrkExtension>
        </extensions>
      </trkpt>
      <trkpt lat="47.63091" lon="-0.69478">
        <ele>35</ele>
        <extensions>
          <visugpx:TrkExtension xmlns:visugpx="https://www.visugpx.com/editgpx/">
            <visugpx:node>33</visugpx:node>
            </visugpx:TrkExtension>
        </extensions>
      </trkpt>
      <trkpt lat="47.63074" lon="-0.69462">
        <ele>31.4</ele>
        <extensions>
          <visugpx:TrkExtension xmlns:visugpx="https://www.visugpx.com/editgpx/">
            <visugpx:node>34</visugpx:node>
            </visugpx:TrkExtension>
        </extensions>
      </trkpt>
      <trkpt lat="47.63062" lon="-0.69452">
        <ele>28.6</ele>
        <extensions>
          <visugpx:TrkExtension xmlns:visugpx="https://www.visugpx.com/editgpx/">
            <visugpx:node>35</visugpx:node>
            </visugpx:TrkExtension>
        </extensions>
      </trkpt>
      <trkpt lat="47.6304" lon="-0.69459">
        <ele>27.5</ele>
        <extensions>
          <visugpx:TrkExtension xmlns:visugpx="https://www.visugpx.com/editgpx/">
            <visugpx:node>36</visugpx:node>
            </visugpx:TrkExtension>
        </extensions>
      </trkpt>
      <trkpt lat="47.62998" lon="-0.69469">
        <ele>25.9</ele>
        <extensions>
          <visugpx:TrkExtension xmlns:visugpx="https://www.visugpx.com/editgpx/">
            <visugpx:node>37</visugpx:node>
            </visugpx:TrkExtension>
        </extensions>
      </trkpt>
      <trkpt lat="47.62959" lon="-0.69484">
        <ele>23.3</ele>
        <extensions>
          <visugpx:TrkExtension xmlns:visugpx="https://www.visugpx.com/editgpx/">
            <visugpx:node>38</visugpx:node>
            </visugpx:TrkExtension>
        </extensions>
      </trkpt>
      <trkpt lat="47.62939" lon="-0.69493">
        <ele>23.2</ele>
        <extensions>
          <visugpx:TrkExtension xmlns:visugpx="https://www.visugpx.com/editgpx/">
            <visugpx:node>39</visugpx:node>
            </visugpx:TrkExtension>
        </extensions>
      </trkpt>
      <trkpt lat="47.62945" lon="-0.69479">
        <ele>21.3</ele>
        <extensions>
          <visugpx:TrkExtension xmlns:visugpx="https://www.visugpx.com/editgpx/">
            <visugpx:node>40</visugpx:node>
            </visugpx:TrkExtension>
        </extensions>
      </trkpt>
      <trkpt lat="47.62937" lon="-0.69465">
        <ele>19.5</ele>
        <extensions>
          <visugpx:TrkExtension xmlns:visugpx="https://www.visugpx.com/editgpx/">
            <visugpx:node>41</visugpx:node>
            </visugpx:TrkExtension>
        </extensions>
      </trkpt>
      <trkpt lat="47.6293" lon="-0.69455">
        <ele>19.2</ele>
        <extensions>
          <visugpx:TrkExtension xmlns:visugpx="https://www.visugpx.com/editgpx/">
            <visugpx:node>42</visugpx:node>
            </visugpx:TrkExtension>
        </extensions>
      </trkpt>
      <trkpt lat="47.62921" lon="-0.69458">
        <ele>19.1</ele>
        <extensions>
          <visugpx:TrkExtension xmlns:visugpx="https://www.visugpx.com/editgpx/">
            <visugpx:node>43</visugpx:node>
            </visugpx:TrkExtension>
        </extensions>
      </trkpt>
      <trkpt lat="47.62918" lon="-0.69478">
        <ele>19.7</ele>
        <extensions>
          <visugpx:TrkExtension xmlns:visugpx="https://www.visugpx.com/editgpx/">
            <visugpx:node>44</visugpx:node>
            </visugpx:TrkExtension>
        </extensions>
      </trkpt>
      <trkpt lat="47.62918" lon="-0.69505">
        <ele>22.8</ele>
        <extensions>
          <visugpx:TrkExtension xmlns:visugpx="https://www.visugpx.com/editgpx/">
            <visugpx:node>45</visugpx:node>
            </visugpx:TrkExtension>
        </extensions>
      </trkpt>
      <trkpt lat="47.62914" lon="-0.69532">
        <ele>26.1</ele>
        <extensions>
          <visugpx:TrkExtension xmlns:visugpx="https://www.visugpx.com/editgpx/">
            <visugpx:node>46</visugpx:node>
            </visugpx:TrkExtension>
        </extensions>
      </trkpt>
      <trkpt lat="47.62868" lon="-0.6955">
        <ele>24.9</ele>
        <extensions>
          <visugpx:TrkExtension xmlns:visugpx="https://www.visugpx.com/editgpx/">
            <visugpx:node>47</visugpx:node>
            </visugpx:TrkExtension>
        </extensions>
      </trkpt>
      <trkpt lat="47.62807" lon="-0.69575">
        <ele>24.4</ele>
        <extensions>
          <visugpx:TrkExtension xmlns:visugpx="https://www.visugpx.com/editgpx/">
            <visugpx:node>48</visugpx:node>
            </visugpx:TrkExtension>
        </extensions>
      </trkpt>
      <trkpt lat="47.62796" lon="-0.69511">
        <ele>19.7</ele>
        <extensions>
          <visugpx:TrkExtension xmlns:visugpx="https://www.visugpx.com/editgpx/">
            <visugpx:node>49</visugpx:node>
            </visugpx:TrkExtension>
        </extensions>
      </trkpt>
      <trkpt lat="47.62735" lon="-0.6954">
        <ele>19.7</ele>
      </trkpt>
      <trkpt lat="47.627" lon="-0.69561">
        <ele>19.6</ele>
      </trkpt>
      <trkpt lat="47.6268" lon="-0.69577">
        <ele>19.8</ele>
      </trkpt>
      <trkpt lat="47.62656" lon="-0.69589">
        <ele>19.6</ele>
        <extensions>
          <visugpx:TrkExtension xmlns:visugpx="https://www.visugpx.com/editgpx/">
            <visugpx:node>50</visugpx:node>
            </visugpx:TrkExtension>
        </extensions>
      </trkpt>
      <trkpt lat="47.62659" lon="-0.69623">
        <ele>24.1</ele>
        <extensions>
          <visugpx:TrkExtension xmlns:visugpx="https://www.visugpx.com/editgpx/">
            <visugpx:node>51</visugpx:node>
            </visugpx:TrkExtension>
        </extensions>
      </trkpt>
      <trkpt lat="47.62662" lon="-0.69698">
        <ele>26.9</ele>
        <extensions>
          <visugpx:TrkExtension xmlns:visugpx="https://www.visugpx.com/editgpx/">
            <visugpx:node>52</visugpx:node>
            </visugpx:TrkExtension>
        </extensions>
      </trkpt>
      <trkpt lat="47.62717" lon="-0.69695">
        <ele>27</ele>
        <extensions>
          <visugpx:TrkExtension xmlns:visugpx="https://www.visugpx.com/editgpx/">
            <visugpx:node>53</visugpx:node>
            </visugpx:TrkExtension>
        </extensions>
      </trkpt>
      <trkpt lat="47.62823" lon="-0.69651">
        <ele>27.3</ele>
        <extensions>
          <visugpx:TrkExtension xmlns:visugpx="https://www.visugpx.com/editgpx/">
            <visugpx:node>54</visugpx:node>
            </visugpx:TrkExtension>
        </extensions>
      </trkpt>
      <trkpt lat="47.62877" lon="-0.6962">
        <ele>27.6</ele>
        <extensions>
          <visugpx:TrkExtension xmlns:visugpx="https://www.visugpx.com/editgpx/">
            <visugpx:node>55</visugpx:node>
            </visugpx:TrkExtension>
        </extensions>
      </trkpt>
      <trkpt lat="47.62902" lon="-0.69648">
        <ele>29.3</ele>
        <extensions>
          <visugpx:TrkExtension xmlns:visugpx="https://www.visugpx.com/editgpx/">
            <visugpx:node>56</visugpx:node>
            </visugpx:TrkExtension>
        </extensions>
      </trkpt>
      <trkpt lat="47.62951" lon="-0.69659">
        <ele>33.2</ele>
        <extensions>
          <visugpx:TrkExtension xmlns:visugpx="https://www.visugpx.com/editgpx/">
            <visugpx:node>57</visugpx:node>
            </visugpx:TrkExtension>
        </extensions>
      </trkpt>
      <trkpt lat="47.62982" lon="-0.6964">
        <ele>35.1</ele>
        <extensions>
          <visugpx:TrkExtension xmlns:visugpx="https://www.visugpx.com/editgpx/">
            <visugpx:node>58</visugpx:node>
            </visugpx:TrkExtension>
        </extensions>
      </trkpt>
      <trkpt lat="47.63013" lon="-0.69668">
        <ele>38.5</ele>
        <extensions>
          <visugpx:TrkExtension xmlns:visugpx="https://www.visugpx.com/editgpx/">
            <visugpx:node>59</visugpx:node>
            </visugpx:TrkExtension>
        </extensions>
      </trkpt>
      <trkpt lat="47.63038" lon="-0.69686">
        <ele>39.4</ele>
        <extensions>
          <visugpx:TrkExtension xmlns:visugpx="https://www.visugpx.com/editgpx/">
            <visugpx:node>60</visugpx:node>
            </visugpx:TrkExtension>
        </extensions>
      </trkpt>
      <trkpt lat="47.63083" lon="-0.69663">
        <ele>41</ele>
        <extensions>
          <visugpx:TrkExtension xmlns:visugpx="https://www.visugpx.com/editgpx/">
            <visugpx:node>61</visugpx:node>
            </visugpx:TrkExtension>
        </extensions>
      </trkpt>
      <trkpt lat="47.62996" lon="-0.69825">
        <ele>38.7</ele>
      </trkpt>
      <trkpt lat="47.62967" lon="-0.69903">
        <ele>37</ele>
        <extensions>
          <visugpx:TrkExtension xmlns:visugpx="https://www.visugpx.com/editgpx/">
            <visugpx:node>62</visugpx:node>
            </visugpx:TrkExtension>
        </extensions>
      </trkpt>
      <trkpt lat="47.62928" lon="-0.70009">
        <ele>37</ele>
        <extensions>
          <visugpx:TrkExtension xmlns:visugpx="https://www.visugpx.com/editgpx/">
            <visugpx:node>63</visugpx:node>
            </visugpx:TrkExtension>
        </extensions>
      </trkpt>
      <trkpt lat="47.6285" lon="-0.69978">
        <ele>36.6</ele>
        <extensions>
          <visugpx:TrkExtension xmlns:visugpx="https://www.visugpx.com/editgpx/">
            <visugpx:node>64</visugpx:node>
            </visugpx:TrkExtension>
        </extensions>
      </trkpt>
      <trkpt lat="47.62792" lon="-0.69978">
        <ele>35.6</ele>
      </trkpt>
      <trkpt lat="47.62747" lon="-0.69988">
        <ele>35.1</ele>
        <extensions>
          <visugpx:TrkExtension xmlns:visugpx="https://www.visugpx.com/editgpx/">
            <visugpx:node>65</visugpx:node>
            </visugpx:TrkExtension>
        </extensions>
      </trkpt>
      <trkpt lat="47.6272" lon="-0.70009">
        <ele>35.3</ele>
        <extensions>
          <visugpx:TrkExtension xmlns:visugpx="https://www.visugpx.com/editgpx/">
            <visugpx:node>66</visugpx:node>
            </visugpx:TrkExtension>
        </extensions>
      </trkpt>
      <trkpt lat="47.62708" lon="-0.70045">
        <ele>36.6</ele>
        <time>2026-01-21T13:45:50Z</time>
      </trkpt>
      <trkpt lat="47.627" lon="-0.70067">
        <ele>37</ele>
        <time>2026-01-21T13:45:58Z</time>
      </trkpt>
      <trkpt lat="47.62691" lon="-0.70101">
        <ele>37</ele>
        <time>2026-01-21T13:46:06Z</time>
      </trkpt>
      <trkpt lat="47.62688" lon="-0.7011">
        <ele>37</ele>
        <time>2026-01-21T13:46:07Z</time>
      </trkpt>
      <trkpt lat="47.62681" lon="-0.70135">
        <ele>37.4</ele>
        <time>2026-01-21T13:46:13Z</time>
      </trkpt>
      <trkpt lat="47.62675" lon="-0.70153">
        <ele>37.1</ele>
        <time>2026-01-21T13:46:14Z</time>
      </trkpt>
      <trkpt lat="47.6267" lon="-0.70171">
        <ele>36.8</ele>
      </trkpt>
      <trkpt lat="47.62683" lon="-0.70192">
        <ele>36.1</ele>
        <time>2026-01-21T13:46:24Z</time>
      </trkpt>
      <trkpt lat="47.62686" lon="-0.70198">
        <ele>35.9</ele>
        <time>2026-01-21T13:46:25Z</time>
      </trkpt>
      <trkpt lat="47.62693" lon="-0.70215">
        <ele>30</ele>
        <time>2026-01-21T13:46:30Z</time>
      </trkpt>
      <trkpt lat="47.62694" lon="-0.7022">
        <ele>30</ele>
        <time>2026-01-21T13:46:31Z</time>
      </trkpt>
      <trkpt lat="47.62695" lon="-0.70226">
        <ele>34.9</ele>
        <time>2026-01-21T13:46:32Z</time>
      </trkpt>
      <trkpt lat="47.62697" lon="-0.70232">
        <ele>34.6</ele>
        <time>2026-01-21T13:46:33Z</time>
      </trkpt>
      <trkpt lat="47.62696" lon="-0.70235">
        <ele>30</ele>
        <time>2026-01-21T13:46:34Z</time>
      </trkpt>
      <trkpt lat="47.62696" lon="-0.7024">
        <ele>30</ele>
        <time>2026-01-21T13:46:35Z</time>
      </trkpt>
      <trkpt lat="47.62696" lon="-0.70245">
        <ele>30</ele>
        <time>2026-01-21T13:46:36Z</time>
      </trkpt>
      <trkpt lat="47.62696" lon="-0.70249">
        <ele>30</ele>
        <time>2026-01-21T13:46:37Z</time>
      </trkpt>
      <trkpt lat="47.62696" lon="-0.70254">
        <ele>30</ele>
        <time>2026-01-21T13:46:38Z</time>
      </trkpt>
      <trkpt lat="47.62696" lon="-0.7026">
        <ele>30</ele>
        <time>2026-01-21T13:46:39Z</time>
      </trkpt>
      <trkpt lat="47.62695" lon="-0.70265">
        <ele>30</ele>
        <time>2026-01-21T13:46:40Z</time>
      </trkpt>
      <trkpt lat="47.62695" lon="-0.70269">
        <ele>30</ele>
        <time>2026-01-21T13:46:41Z</time>
      </trkpt>
      <trkpt lat="47.62693" lon="-0.70272">
        <ele>30</ele>
        <time>2026-01-21T13:46:42Z</time>
      </trkpt>
      <trkpt lat="47.62691" lon="-0.70275">
        <ele>30</ele>
        <time>2026-01-21T13:46:43Z</time>
      </trkpt>
      <trkpt lat="47.62688" lon="-0.70277">
        <ele>31</ele>
        <time>2026-01-21T13:46:44Z</time>
      </trkpt>
      <trkpt lat="47.62685" lon="-0.70279">
        <ele>31</ele>
        <time>2026-01-21T13:46:45Z</time>
      </trkpt>
      <trkpt lat="47.62682" lon="-0.70279">
        <ele>31</ele>
        <time>2026-01-21T13:46:46Z</time>
      </trkpt>
      <trkpt lat="47.62678" lon="-0.70281">
        <ele>30</ele>
        <time>2026-01-21T13:46:47Z</time>
      </trkpt>
      <trkpt lat="47.62676" lon="-0.70281">
        <ele>30</ele>
        <time>2026-01-21T13:46:48Z</time>
      </trkpt>
      <trkpt lat="47.62673" lon="-0.70282">
        <ele>30</ele>
        <time>2026-01-21T13:46:49Z</time>
      </trkpt>
      <trkpt lat="47.6267" lon="-0.70281">
        <ele>30</ele>
        <time>2026-01-21T13:46:50Z</time>
      </trkpt>
      <trkpt lat="47.62668" lon="-0.7028">
        <ele>30</ele>
        <time>2026-01-21T13:46:51Z</time>
      </trkpt>
      <trkpt lat="47.62665" lon="-0.70278">
        <ele>30</ele>
        <time>2026-01-21T13:46:52Z</time>
      </trkpt>
      <trkpt lat="47.62663" lon="-0.70276">
        <ele>30</ele>
        <time>2026-01-21T13:46:53Z</time>
      </trkpt>
      <trkpt lat="47.6266" lon="-0.70275">
        <ele>30</ele>
        <time>2026-01-21T13:46:54Z</time>
      </trkpt>
      <trkpt lat="47.62657" lon="-0.70274">
        <ele>30</ele>
        <time>2026-01-21T13:46:55Z</time>
      </trkpt>
      <trkpt lat="47.62655" lon="-0.70273">
        <ele>30</ele>
        <time>2026-01-21T13:46:56Z</time>
      </trkpt>
      <trkpt lat="47.62652" lon="-0.70272">
        <ele>30</ele>
        <time>2026-01-21T13:46:57Z</time>
      </trkpt>
      <trkpt lat="47.62649" lon="-0.70271">
        <ele>30</ele>
        <time>2026-01-21T13:46:58Z</time>
      </trkpt>
      <trkpt lat="47.62646" lon="-0.7027">
        <ele>29</ele>
        <time>2026-01-21T13:46:59Z</time>
      </trkpt>
      <trkpt lat="47.62642" lon="-0.7027">
        <ele>29</ele>
        <time>2026-01-21T13:47:00Z</time>
      </trkpt>
      <trkpt lat="47.62638" lon="-0.7027">
        <ele>29</ele>
        <time>2026-01-21T13:47:01Z</time>
      </trkpt>
      <trkpt lat="47.62635" lon="-0.7027">
        <ele>29</ele>
        <time>2026-01-21T13:47:02Z</time>
      </trkpt>
      <trkpt lat="47.62632" lon="-0.7027">
        <ele>29</ele>
        <time>2026-01-21T13:47:03Z</time>
      </trkpt>
      <trkpt lat="47.62629" lon="-0.70269">
        <ele>29</ele>
        <time>2026-01-21T13:47:04Z</time>
      </trkpt>
      <trkpt lat="47.62597" lon="-0.70286">
        <ele>29</ele>
        <time>2026-01-21T13:47:13Z</time>
      </trkpt>
      <trkpt lat="47.6259" lon="-0.70299">
        <ele>30</ele>
        <time>2026-01-21T13:47:14Z</time>
      </trkpt>
      <trkpt lat="47.62596" lon="-0.70312">
        <ele>30</ele>
        <time>2026-01-21T13:47:15Z</time>
      </trkpt>
      <trkpt lat="47.62606" lon="-0.70317">
        <ele>27</ele>
        <time>2026-01-21T13:47:17Z</time>
      </trkpt>
      <trkpt lat="47.62616" lon="-0.70324">
        <ele>23</ele>
        <time>2026-01-21T13:47:20Z</time>
      </trkpt>
      <trkpt lat="47.62625" lon="-0.70327">
        <ele>19</ele>
        <time>2026-01-21T13:47:23Z</time>
      </trkpt>
      <trkpt lat="47.62635" lon="-0.70326">
        <ele>17</ele>
        <time>2026-01-21T13:47:26Z</time>
      </trkpt>
      <trkpt lat="47.62637" lon="-0.70325">
        <ele>17</ele>
        <time>2026-01-21T13:47:27Z</time>
      </trkpt>
      <trkpt lat="47.62643" lon="-0.70325">
        <ele>16</ele>
        <time>2026-01-21T13:47:29Z</time>
      </trkpt>
      <trkpt lat="47.62653" lon="-0.70325">
        <ele>13</ele>
        <time>2026-01-21T13:47:33Z</time>
      </trkpt>
      <trkpt lat="47.6266" lon="-0.70323">
        <ele>12</ele>
        <time>2026-01-21T13:47:35Z</time>
      </trkpt>
      <trkpt lat="47.62662" lon="-0.70323">
        <ele>13</ele>
        <time>2026-01-21T13:47:36Z</time>
      </trkpt>
      <trkpt lat="47.62663" lon="-0.70321">
        <ele>13</ele>
        <time>2026-01-21T13:47:37Z</time>
      </trkpt>
      <trkpt lat="47.62666" lon="-0.70316">
        <ele>15</ele>
        <time>2026-01-21T13:47:39Z</time>
      </trkpt>
      <trkpt lat="47.62668" lon="-0.70314">
        <ele>16</ele>
        <time>2026-01-21T13:47:40Z</time>
      </trkpt>
      <trkpt lat="47.62671" lon="-0.70314">
        <ele>17</ele>
        <time>2026-01-21T13:47:41Z</time>
      </trkpt>
      <trkpt lat="47.62673" lon="-0.70314">
        <ele>16</ele>
        <time>2026-01-21T13:47:42Z</time>
      </trkpt>
      <trkpt lat="47.62676" lon="-0.70308">
        <ele>28</ele>
        <time>2026-01-21T13:47:43Z</time>
      </trkpt>
      <trkpt lat="47.627" lon="-0.70314">
        <ele>27.6</ele>
        <time>2026-01-21T13:47:50Z</time>
      </trkpt>
      <trkpt lat="47.62724" lon="-0.7032">
        <ele>27</ele>
        <time>2026-01-21T13:48:00Z</time>
      </trkpt>
      <trkpt lat="47.62732" lon="-0.70322">
        <ele>26.9</ele>
        <time>2026-01-21T13:48:01Z</time>
      </trkpt>
      <trkpt lat="47.6276" lon="-0.7033">
        <ele>26.7</ele>
        <time>2026-01-21T13:48:09Z</time>
      </trkpt>
      <trkpt lat="47.62779" lon="-0.70336">
        <ele>26.7</ele>
        <time>2026-01-21T13:48:18Z</time>
      </trkpt>
      <trkpt lat="47.62785" lon="-0.70338">
        <ele>26.5</ele>
        <time>2026-01-21T13:48:19Z</time>
      </trkpt>
      <trkpt lat="47.62793" lon="-0.70342">
        <ele>26.1</ele>
        <time>2026-01-21T13:48:20Z</time>
      </trkpt>
      <trkpt lat="47.62804" lon="-0.70348">
        <ele>25.9</ele>
        <time>2026-01-21T13:48:26Z</time>
      </trkpt>
      <trkpt lat="47.62807" lon="-0.70354">
        <ele>25.6</ele>
        <time>2026-01-21T13:48:27Z</time>
      </trkpt>
      <trkpt lat="47.62811" lon="-0.70362">
        <ele>25.1</ele>
        <time>2026-01-21T13:48:28Z</time>
      </trkpt>
      <trkpt lat="47.62824" lon="-0.70391">
        <ele>18</ele>
        <time>2026-01-21T13:48:38Z</time>
      </trkpt>
      <trkpt lat="47.62826" lon="-0.70395">
        <ele>18</ele>
        <time>2026-01-21T13:48:39Z</time>
      </trkpt>
      <trkpt lat="47.62828" lon="-0.70398">
        <ele>18</ele>
        <time>2026-01-21T13:48:40Z</time>
      </trkpt>
      <trkpt lat="47.6283" lon="-0.70402">
        <ele>18</ele>
        <time>2026-01-21T13:48:41Z</time>
      </trkpt>
      <trkpt lat="47.62832" lon="-0.70406">
        <ele>18</ele>
        <time>2026-01-21T13:48:42Z</time>
      </trkpt>
      <trkpt lat="47.62834" lon="-0.7041">
        <ele>18</ele>
        <time>2026-01-21T13:48:43Z</time>
      </trkpt>
      <trkpt lat="47.62839" lon="-0.70422">
        <ele>18</ele>
        <time>2026-01-21T13:48:46Z</time>
      </trkpt>
      <trkpt lat="47.62842" lon="-0.7043">
        <ele>18</ele>
        <time>2026-01-21T13:48:48Z</time>
      </trkpt>
      <trkpt lat="47.62843" lon="-0.70434">
        <ele>18</ele>
        <time>2026-01-21T13:48:49Z</time>
      </trkpt>
      <trkpt lat="47.6285" lon="-0.70457">
        <ele>18</ele>
        <time>2026-01-21T13:48:54Z</time>
      </trkpt>
      <trkpt lat="47.62853" lon="-0.70465">
        <ele>18</ele>
        <time>2026-01-21T13:48:56Z</time>
      </trkpt>
      <trkpt lat="47.62856" lon="-0.70472">
        <ele>17</ele>
        <time>2026-01-21T13:48:58Z</time>
      </trkpt>
      <trkpt lat="47.62863" lon="-0.70488">
        <ele>17</ele>
        <time>2026-01-21T13:49:02Z</time>
      </trkpt>
      <trkpt lat="47.62866" lon="-0.70495">
        <ele>17</ele>
        <time>2026-01-21T13:49:04Z</time>
      </trkpt>
      <trkpt lat="47.62869" lon="-0.70504">
        <ele>17</ele>
        <time>2026-01-21T13:49:06Z</time>
      </trkpt>
      <trkpt lat="47.62873" lon="-0.70516">
        <ele>17</ele>
        <time>2026-01-21T13:49:09Z</time>
      </trkpt>
      <trkpt lat="47.6288" lon="-0.70533">
        <ele>17</ele>
        <time>2026-01-21T13:49:13Z</time>
      </trkpt>
      <trkpt lat="47.62883" lon="-0.7054">
        <ele>17</ele>
        <time>2026-01-21T13:49:15Z</time>
      </trkpt>
      <trkpt lat="47.62886" lon="-0.70549">
        <ele>17</ele>
        <time>2026-01-21T13:49:17Z</time>
      </trkpt>
      <trkpt lat="47.62889" lon="-0.70557">
        <ele>17</ele>
        <time>2026-01-21T13:49:19Z</time>
      </trkpt>
      <trkpt lat="47.62894" lon="-0.7057">
        <ele>17</ele>
        <time>2026-01-21T13:49:22Z</time>
      </trkpt>
      <trkpt lat="47.62902" lon="-0.7059">
        <ele>17</ele>
        <time>2026-01-21T13:49:27Z</time>
      </trkpt>
      <trkpt lat="47.62905" lon="-0.70597">
        <ele>17</ele>
        <time>2026-01-21T13:49:29Z</time>
      </trkpt>
      <trkpt lat="47.62909" lon="-0.70604">
        <ele>17</ele>
        <time>2026-01-21T13:49:31Z</time>
      </trkpt>
      <trkpt lat="47.62911" lon="-0.70607">
        <ele>17</ele>
        <time>2026-01-21T13:49:32Z</time>
      </trkpt>
      <trkpt lat="47.62914" lon="-0.70608">
        <ele>17</ele>
        <time>2026-01-21T13:49:33Z</time>
      </trkpt>
      <trkpt lat="47.62916" lon="-0.70607">
        <ele>17</ele>
        <time>2026-01-21T13:49:35Z</time>
      </trkpt>
      <trkpt lat="47.62918" lon="-0.7061">
        <ele>17</ele>
        <time>2026-01-21T13:49:39Z</time>
      </trkpt>
      <trkpt lat="47.6292" lon="-0.70613">
        <ele>17</ele>
        <time>2026-01-21T13:49:41Z</time>
      </trkpt>
      <trkpt lat="47.62921" lon="-0.70615">
        <ele>16</ele>
        <time>2026-01-21T13:49:42Z</time>
      </trkpt>
      <trkpt lat="47.62926" lon="-0.70629">
        <ele>22.1</ele>
        <time>2026-01-21T13:49:47Z</time>
      </trkpt>
      <trkpt lat="47.62931" lon="-0.70643">
        <ele>16</ele>
        <time>2026-01-21T13:49:51Z</time>
      </trkpt>
      <trkpt lat="47.62936" lon="-0.70655">
        <ele>21.8</ele>
        <time>2026-01-21T13:49:55Z</time>
      </trkpt>
      <trkpt lat="47.62941" lon="-0.70669">
        <ele>21.9</ele>
        <time>2026-01-21T13:49:59Z</time>
      </trkpt>
      <trkpt lat="47.62946" lon="-0.70685">
        <ele>15</ele>
        <time>2026-01-21T13:50:03Z</time>
      </trkpt>
      <trkpt lat="47.62951" lon="-0.70699">
        <ele>15</ele>
        <time>2026-01-21T13:50:05Z</time>
      </trkpt>
      <trkpt lat="47.62959" lon="-0.70707">
        <ele>16</ele>
        <time>2026-01-21T13:50:09Z</time>
      </trkpt>
      <trkpt lat="47.62962" lon="-0.70706">
        <ele>16</ele>
        <time>2026-01-21T13:50:10Z</time>
      </trkpt>
      <trkpt lat="47.62965" lon="-0.70706">
        <ele>16</ele>
        <time>2026-01-21T13:50:11Z</time>
      </trkpt>
      <trkpt lat="47.62968" lon="-0.70706">
        <ele>16</ele>
        <time>2026-01-21T13:50:12Z</time>
      </trkpt>
      <trkpt lat="47.62971" lon="-0.70707">
        <ele>15</ele>
        <time>2026-01-21T13:50:13Z</time>
      </trkpt>
      <trkpt lat="47.62979" lon="-0.70713">
        <ele>14</ele>
        <time>2026-01-21T13:50:15Z</time>
      </trkpt>
      <trkpt lat="47.62982" lon="-0.70715">
        <ele>13</ele>
        <time>2026-01-21T13:50:16Z</time>
      </trkpt>
      <trkpt lat="47.62985" lon="-0.70718">
        <ele>13</ele>
        <time>2026-01-21T13:50:17Z</time>
      </trkpt>
      <trkpt lat="47.62987" lon="-0.7072">
        <ele>13</ele>
        <time>2026-01-21T13:50:18Z</time>
      </trkpt>
      <trkpt lat="47.62989" lon="-0.70722">
        <ele>13</ele>
        <time>2026-01-21T13:50:19Z</time>
      </trkpt>
      <trkpt lat="47.6299" lon="-0.70723">
        <ele>13</ele>
        <time>2026-01-21T13:50:20Z</time>
      </trkpt>
      <trkpt lat="47.62993" lon="-0.70725">
        <ele>13</ele>
        <time>2026-01-21T13:50:22Z</time>
      </trkpt>
      <trkpt lat="47.62995" lon="-0.70728">
        <ele>13</ele>
        <time>2026-01-21T13:50:24Z</time>
      </trkpt>
      <trkpt lat="47.62997" lon="-0.7073">
        <ele>13</ele>
        <time>2026-01-21T13:50:25Z</time>
      </trkpt>
      <trkpt lat="47.62998" lon="-0.70734">
        <ele>13</ele>
        <time>2026-01-21T13:50:26Z</time>
      </trkpt>
      <trkpt lat="47.63" lon="-0.70744">
        <ele>13</ele>
        <time>2026-01-21T13:50:28Z</time>
      </trkpt>
      <trkpt lat="47.63004" lon="-0.70759">
        <ele>14</ele>
        <time>2026-01-21T13:50:31Z</time>
      </trkpt>
      <trkpt lat="47.63005" lon="-0.70764">
        <ele>14</ele>
        <time>2026-01-21T13:50:32Z</time>
      </trkpt>
      <trkpt lat="47.63006" lon="-0.70769">
        <ele>14</ele>
        <time>2026-01-21T13:50:33Z</time>
      </trkpt>
      <trkpt lat="47.63007" lon="-0.70779">
        <ele>14</ele>
        <time>2026-01-21T13:50:35Z</time>
      </trkpt>
      <trkpt lat="47.63007" lon="-0.70789">
        <ele>14</ele>
        <time>2026-01-21T13:50:37Z</time>
      </trkpt>
      <trkpt lat="47.63008" lon="-0.70794">
        <ele>14</ele>
        <time>2026-01-21T13:50:38Z</time>
      </trkpt>
      <trkpt lat="47.63009" lon="-0.70804">
        <ele>15</ele>
        <time>2026-01-21T13:50:40Z</time>
      </trkpt>
      <trkpt lat="47.6301" lon="-0.70814">
        <ele>15</ele>
        <time>2026-01-21T13:50:42Z</time>
      </trkpt>
      <trkpt lat="47.63011" lon="-0.70823">
        <ele>15</ele>
        <time>2026-01-21T13:50:44Z</time>
      </trkpt>
      <trkpt lat="47.63012" lon="-0.70833">
        <ele>15</ele>
        <time>2026-01-21T13:50:46Z</time>
      </trkpt>
      <trkpt lat="47.63012" lon="-0.70838">
        <ele>15</ele>
        <time>2026-01-21T13:50:47Z</time>
      </trkpt>
      <trkpt lat="47.63013" lon="-0.70842">
        <ele>16</ele>
        <time>2026-01-21T13:50:48Z</time>
      </trkpt>
      <trkpt lat="47.63017" lon="-0.70865">
        <ele>16</ele>
        <time>2026-01-21T13:50:53Z</time>
      </trkpt>
      <trkpt lat="47.63018" lon="-0.70869">
        <ele>17</ele>
        <time>2026-01-21T13:50:54Z</time>
      </trkpt>
      <trkpt lat="47.63019" lon="-0.70873">
        <ele>17</ele>
        <time>2026-01-21T13:50:55Z</time>
      </trkpt>
      <trkpt lat="47.6302" lon="-0.70877">
        <ele>17</ele>
        <time>2026-01-21T13:50:56Z</time>
      </trkpt>
      <trkpt lat="47.63021" lon="-0.70881">
        <ele>17</ele>
        <time>2026-01-21T13:50:57Z</time>
      </trkpt>
      <trkpt lat="47.63022" lon="-0.70885">
        <ele>17</ele>
        <time>2026-01-21T13:50:58Z</time>
      </trkpt>
      <trkpt lat="47.63025" lon="-0.70898">
        <ele>21</ele>
        <time>2026-01-21T13:51:01Z</time>
      </trkpt>
      <trkpt lat="47.63028" lon="-0.70951">
        <ele>21</ele>
        <time>2026-01-21T13:51:14Z</time>
      </trkpt>
      <trkpt lat="47.63029" lon="-0.70958">
        <ele>17</ele>
        <time>2026-01-21T13:51:15Z</time>
      </trkpt>
      <trkpt lat="47.63029" lon="-0.70959">
        <ele>21</ele>
        <time>2026-01-21T13:51:16Z</time>
      </trkpt>
      <trkpt lat="47.6303" lon="-0.70968">
        <ele>17</ele>
        <time>2026-01-21T13:51:17Z</time>
      </trkpt>
      <trkpt lat="47.6303" lon="-0.70972">
        <ele>17</ele>
        <time>2026-01-21T13:51:18Z</time>
      </trkpt>
      <trkpt lat="47.6303" lon="-0.70975">
        <ele>21</ele>
        <time>2026-01-21T13:51:19Z</time>
      </trkpt>
      <trkpt lat="47.63031" lon="-0.70987">
        <ele>17</ele>
        <time>2026-01-21T13:51:21Z</time>
      </trkpt>
      <trkpt lat="47.63031" lon="-0.70995">
        <ele>21</ele>
        <time>2026-01-21T13:51:23Z</time>
      </trkpt>
      <trkpt lat="47.63032" lon="-0.71005">
        <ele>17</ele>
        <time>2026-01-21T13:51:25Z</time>
      </trkpt>
      <trkpt lat="47.63034" lon="-0.71041">
        <ele>17</ele>
        <time>2026-01-21T13:51:33Z</time>
      </trkpt>
      <trkpt lat="47.63034" lon="-0.71046">
        <ele>17</ele>
        <time>2026-01-21T13:51:34Z</time>
      </trkpt>
      <trkpt lat="47.63034" lon="-0.7107">
        <ele>20.2</ele>
        <time>2026-01-21T13:51:41Z</time>
      </trkpt>
      <trkpt lat="47.63034" lon="-0.71081">
        <ele>20.2</ele>
        <time>2026-01-21T13:51:42Z</time>
      </trkpt>
      <trkpt lat="47.63034" lon="-0.71088">
        <ele>20.2</ele>
      </trkpt>
      <trkpt lat="47.63033" lon="-0.71091">
        <ele>17</ele>
        <time>2026-01-21T13:51:44Z</time>
      </trkpt>
      <trkpt lat="47.63031" lon="-0.71096">
        <ele>17</ele>
        <time>2026-01-21T13:51:45Z</time>
      </trkpt>
      <trkpt lat="47.6303" lon="-0.711">
        <ele>17</ele>
        <time>2026-01-21T13:51:46Z</time>
      </trkpt>
      <trkpt lat="47.63028" lon="-0.71105">
        <ele>17</ele>
        <time>2026-01-21T13:51:47Z</time>
      </trkpt>
      <trkpt lat="47.63026" lon="-0.71109">
        <ele>17</ele>
        <time>2026-01-21T13:51:48Z</time>
      </trkpt>
      <trkpt lat="47.63024" lon="-0.71113">
        <ele>17</ele>
        <time>2026-01-21T13:51:49Z</time>
      </trkpt>
      <trkpt lat="47.63023" lon="-0.71117">
        <ele>20</ele>
        <time>2026-01-21T13:51:50Z</time>
      </trkpt>
      <trkpt lat="47.63022" lon="-0.7112">
        <ele>20.1</ele>
        <time>2026-01-21T13:51:51Z</time>
      </trkpt>
      <trkpt lat="47.63019" lon="-0.71124">
        <ele>20.2</ele>
        <time>2026-01-21T13:51:52Z</time>
      </trkpt>
      <trkpt lat="47.63015" lon="-0.71128">
        <ele>17</ele>
        <time>2026-01-21T13:51:53Z</time>
      </trkpt>
      <trkpt lat="47.63012" lon="-0.7113">
        <ele>20.1</ele>
      </trkpt>
      <trkpt lat="47.63008" lon="-0.71133">
        <ele>20.1</ele>
        <time>2026-01-21T13:51:56Z</time>
      </trkpt>
      <trkpt lat="47.63003" lon="-0.71137">
        <ele>20</ele>
        <time>2026-01-21T13:51:57Z</time>
      </trkpt>
      <trkpt lat="47.6299" lon="-0.71142">
        <ele>20</ele>
        <time>2026-01-21T13:52:02Z</time>
      </trkpt>
      <trkpt lat="47.62986" lon="-0.71143">
        <ele>16</ele>
        <time>2026-01-21T13:52:03Z</time>
      </trkpt>
      <trkpt lat="47.62983" lon="-0.71144">
        <ele>16</ele>
        <time>2026-01-21T13:52:04Z</time>
      </trkpt>
      <trkpt lat="47.62982" lon="-0.71144">
        <ele>20</ele>
        <time>2026-01-21T13:52:05Z</time>
      </trkpt>
      <trkpt lat="47.62978" lon="-0.71145">
        <ele>20</ele>
      </trkpt>
      <trkpt lat="47.62972" lon="-0.71147">
        <ele>20</ele>
        <time>2026-01-21T13:52:08Z</time>
      </trkpt>
      <trkpt lat="47.62952" lon="-0.71153">
        <ele>20</ele>
        <time>2026-01-21T13:52:13Z</time>
      </trkpt>
      <trkpt lat="47.6294" lon="-0.71164">
        <ele>20</ele>
        <time>2026-01-21T13:52:20Z</time>
      </trkpt>
      <trkpt lat="47.62936" lon="-0.71167">
        <ele>20</ele>
        <time>2026-01-21T13:52:21Z</time>
      </trkpt>
      <trkpt lat="47.62934" lon="-0.71176">
        <ele>20</ele>
        <time>2026-01-21T13:52:25Z</time>
      </trkpt>
      <trkpt lat="47.62932" lon="-0.71187">
        <ele>20</ele>
        <time>2026-01-21T13:52:26Z</time>
      </trkpt>
      <trkpt lat="47.6293" lon="-0.71196">
        <ele>16</ele>
        <time>2026-01-21T13:52:27Z</time>
      </trkpt>
      <trkpt lat="47.62928" lon="-0.712">
        <ele>19.8</ele>
        <time>2026-01-21T13:52:28Z</time>
      </trkpt>
      <trkpt lat="47.62926" lon="-0.71208">
        <ele>19.5</ele>
        <time>2026-01-21T13:52:29Z</time>
      </trkpt>
      <trkpt lat="47.62921" lon="-0.71218">
        <ele>19.2</ele>
        <time>2026-01-21T13:52:30Z</time>
      </trkpt>
      <trkpt lat="47.62918" lon="-0.71227">
        <ele>19</ele>
        <time>2026-01-21T13:52:34Z</time>
      </trkpt>
      <trkpt lat="47.62922" lon="-0.71239">
        <ele>19</ele>
        <time>2026-01-21T13:52:35Z</time>
      </trkpt>
      <trkpt lat="47.62929" lon="-0.71256">
        <ele>19.1</ele>
        <time>2026-01-21T13:52:40Z</time>
      </trkpt>
      <trkpt lat="47.62933" lon="-0.71266">
        <ele>19.3</ele>
        <time>2026-01-21T13:52:42Z</time>
      </trkpt>
      <trkpt lat="47.62935" lon="-0.7127">
        <ele>19.5</ele>
        <time>2026-01-21T13:52:45Z</time>
      </trkpt>
      <trkpt lat="47.62943" lon="-0.71287">
        <ele>20.2</ele>
        <time>2026-01-21T13:52:46Z</time>
      </trkpt>
      <trkpt lat="47.62948" lon="-0.71302">
        <ele>20.7</ele>
        <time>2026-01-21T13:52:47Z</time>
      </trkpt>
      <trkpt lat="47.62937" lon="-0.71315">
        <ele>20</ele>
        <time>2026-01-21T13:52:53Z</time>
      </trkpt>
      <trkpt lat="47.62911" lon="-0.71343">
        <ele>20.5</ele>
        <time>2026-01-21T13:52:59Z</time>
      </trkpt>
      <trkpt lat="47.62921" lon="-0.71364">
        <ele>21.5</ele>
      </trkpt>
      <trkpt lat="47.62945" lon="-0.71414">
        <ele>21.7</ele>
        <time>2026-01-21T13:53:08Z</time>
        <extensions>
          <visugpx:TrkExtension xmlns:visugpx="https://www.visugpx.com/editgpx/">
            <visugpx:node>68</visugpx:node>
            </visugpx:TrkExtension>
        </extensions>
      </trkpt>
      <trkpt lat="47.62948" lon="-0.71411">
        <ele>21.3</ele>
        <extensions>
          <visugpx:TrkExtension xmlns:visugpx="https://www.visugpx.com/editgpx/">
            <visugpx:node>69</visugpx:node>
            </visugpx:TrkExtension>
        </extensions>
      </trkpt>
      <trkpt lat="47.62949" lon="-0.7141">
        <ele>21</ele>
        <extensions>
          <visugpx:TrkExtension xmlns:visugpx="https://www.visugpx.com/editgpx/">
            <visugpx:node>70</visugpx:node>
            </visugpx:TrkExtension>
        </extensions>
      </trkpt>
      <trkpt lat="47.6295" lon="-0.71407">
        <ele>20.7</ele>
        <extensions>
          <visugpx:TrkExtension xmlns:visugpx="https://www.visugpx.com/editgpx/">
            <visugpx:node>71</visugpx:node>
            </visugpx:TrkExtension>
        </extensions>
      </trkpt>
    </trkseg>
  </trk>
</gpx>